Time;durP1;ratioP1;P1;durP2;ratioP2;P2;SDS_P1;SDS_P2;PMS_P1;PMS_P2;Temp;Humidity;BMP_temperature;BMP_pressure;BME280_temperature;BME280_humidity;BME280_pressure;Samples;Min_cycle;Max_cycle;Signal;HPM_P1;HPM_P2
2021/03/12 00:02:26;;;;;;;17.27;7.03;;;7.10;62.10;;;;;;5067824;28;20036;-61
2021/03/12 00:04:52;;;;;;;20.20;7.70;;;7.00;64.50;;;;;;5051854;28;20084;-61
2021/03/12 00:07:19;;;;;;;23.02;7.43;;;7.00;65.60;;;;;;5071326;28;20512;-61
2021/03/12 00:09:46;;;;;;;22.60;7.53;;;7.00;64.90;;;;;;5065480;28;20778;-61
2021/03/12 00:12:12;;;;;;;20.33;8.13;;;6.90;64.50;;;;;;5069294;28;20545;-61
2021/03/12 00:14:42;;;;;;;18.67;7.22;;;7.20;64.20;;;;;;5065503;28;20044;-61
2021/03/12 00:17:08;;;;;;;18.20;7.15;;;6.90;64.30;;;;;;5068792;28;20119;-61
2021/03/12 00:19:35;;;;;;;18.30;7.60;;;6.90;63.70;;;;;;5070535;28;20035;-61
2021/03/12 00:22:02;;;;;;;15.32;6.75;;;6.80;63.50;;;;;;5060716;28;20052;-61
2021/03/12 00:24:29;;;;;;;22.30;7.45;;;6.80;63.30;;;;;;5043597;28;20098;-61
2021/03/12 00:26:59;;;;;;;21.13;7.68;;;6.80;63.40;;;;;;5051263;28;20056;-61
2021/03/12 00:29:29;;;;;;;15.27;6.38;;;6.80;63.50;;;;;;5032355;28;20541;-61
2021/03/12 00:31:56;;;;;;;17.83;7.25;;;6.80;63.00;;;;;;5069404;28;20395;-61
2021/03/12 00:34:22;;;;;;;19.15;7.20;;;6.80;63.20;;;;;;5068936;28;20051;-61
2021/03/12 00:36:49;;;;;;;21.88;7.22;;;6.80;63.20;;;;;;5053053;28;20503;-61
2021/03/12 00:39:16;;;;;;;18.88;6.93;;;6.80;63.30;;;;;;5069659;28;20045;-61
2021/03/12 00:41:59;;;;;;;;;;;6.80;63.70;;;;;;5069302;28;20056;-61
2021/03/12 00:44:26;;;;;;;17.77;6.68;;;6.90;63.30;;;;;;5070620;28;19920;-61
2021/03/12 00:46:53;;;;;;;16.17;6.63;;;6.90;63.60;;;;;;5067983;28;20051;-61
2021/03/12 00:49:21;;;;;;;22.58;7.70;;;6.90;63.80;;;;;;5053024;28;20821;-60
2021/03/12 00:51:50;;;;;;;19.42;7.60;;;6.90;63.10;;;;;;5043581;28;20048;-61
2021/03/12 00:54:23;;;;;;;18.90;8.18;;;6.90;63.10;;;;;;5047192;28;20049;-61
2021/03/12 00:56:58;;;;;;;17.23;7.13;;;6.90;63.30;;;;;;5046249;28;20515;-61
2021/03/12 00:59:25;;;;;;;17.48;8.02;;;6.90;63.00;;;;;;5051138;28;20052;-61
2021/03/12 01:01:54;;;;;;;20.52;7.20;;;6.90;63.30;;;;;;5045581;28;20475;-61
2021/03/12 01:04:21;;;;;;;22.70;7.80;;;6.80;63.90;;;;;;5046948;28;20445;-61
2021/03/12 01:06:52;;;;;;;21.40;7.30;;;6.80;63.90;;;;;;5057905;28;20041;-61
2021/03/12 01:09:18;;;;;;;19.95;7.47;;;6.80;64.60;;;;;;5050167;28;20133;-61
2021/03/12 01:11:45;;;;;;;18.70;7.18;;;6.80;64.50;;;;;;5051224;28;20032;-61
2021/03/12 01:14:13;;;;;;;19.02;7.45;;;6.80;64.70;;;;;;5051350;28;20075;-61
2021/03/12 01:16:46;;;;;;;16.60;7.25;;;6.70;64.50;;;;;;5049735;28;20117;-61
2021/03/12 01:19:13;;;;;;;18.80;7.53;;;6.70;64.50;;;;;;5051439;28;20507;-61
2021/03/12 01:21:39;;;;;;;18.88;7.38;;;6.70;64.40;;;;;;5051320;28;20052;-61
2021/03/12 01:24:10;;;;;;;17.08;7.00;;;6.70;65.10;;;;;;5048617;28;20053;-61
2021/03/12 01:26:53;;;;;;;20.98;7.28;;;6.80;64.20;;;;;;5032420;28;20047;-62
2021/03/12 01:29:20;;;;;;;22.52;8.07;;;6.80;65.50;;;;;;5050536;28;20612;-61
2021/03/12 01:31:55;;;;;;;22.30;8.43;;;6.80;66.20;;;;;;5048982;28;20098;-61
2021/03/12 01:34:25;;;;;;;20.77;7.85;;;6.80;65.20;;;;;;5040298;28;20060;-61
2021/03/12 01:36:53;;;;;;;21.42;8.82;;;6.90;67.00;;;;;;5066449;28;20039;-61
2021/03/12 01:39:20;;;;;;;20.58;7.25;;;6.90;64.30;;;;;;5049400;28;20044;-61
2021/03/12 01:41:50;;;;;;;16.80;7.60;;;6.90;64.40;;;;;;5047646;28;20501;-61
2021/03/12 01:44:21;;;;;;;22.35;7.97;;;6.90;64.10;;;;;;5048959;28;20037;-61
2021/03/12 01:46:51;;;;;;;18.90;7.50;;;7.00;64.70;;;;;;5043204;28;20049;-61
2021/03/12 01:49:18;;;;;;;18.60;7.05;;;7.00;65.20;;;;;;5060645;28;20051;-61
2021/03/12 01:51:46;;;;;;;17.80;7.03;;;6.90;64.50;;;;;;5051259;28;20109;-61
2021/03/12 01:54:15;;;;;;;16.17;6.78;;;7.00;63.90;;;;;;5051078;28;20045;-61
2021/03/12 01:56:43;;;;;;;17.60;7.07;;;6.90;63.50;;;;;;5056400;28;20051;-61
2021/03/12 01:59:20;;;;;;;19.70;6.85;;;7.00;63.90;;;;;;5057083;28;20047;-61
2021/03/12 02:01:54;;;;;;;16.27;6.75;;;7.00;64.10;;;;;;5056184;28;20049;-61
2021/03/12 02:04:34;;;;;;;20.73;8.10;;;7.00;63.90;;;;;;5058453;28;20097;-61
2021/03/12 02:07:09;;;;;;;18.83;7.55;;;7.00;64.00;;;;;;5055402;28;20119;-61
2021/03/12 02:09:38;;;;;;;17.23;7.28;;;7.00;63.80;;;;;;5056222;28;20569;-61
2021/03/12 02:12:46;;;;;;;17.88;7.40;;;6.90;64.10;;;;;;5047915;28;20048;-61
2021/03/12 02:15:17;;;;;;;20.20;6.82;;;6.90;64.10;;;;;;5058177;28;20098;-61
2021/03/12 02:17:53;;;;;;;17.98;6.90;;;6.90;64.30;;;;;;5051098;28;20048;-61
2021/03/12 02:20:36;;;;;;;20.00;7.63;;;6.90;64.20;;;;;;5072616;28;20549;-61
2021/03/12 02:23:28;;;;;;;20.88;7.80;;;6.90;65.70;;;;;;5058120;28;20564;-61
2021/03/12 02:26:30;;;;;;;20.15;7.43;;;7.00;66.70;;;;;;5057651;28;20135;-61
2021/03/12 02:29:00;;;;;;;23.65;7.57;;;7.00;68.30;;;;;;5072643;28;20076;-61
2021/03/12 02:31:34;;;;;;;18.90;7.53;;;6.90;70.30;;;;;;5058117;28;20048;-61
2021/03/12 02:34:04;;;;;;;19.45;8.00;;;6.90;71.60;;;;;;5058484;28;20076;-61
2021/03/12 02:36:34;;;;;;;17.70;7.45;;;6.90;71.70;;;;;;5052347;28;20036;-61
2021/03/12 02:39:07;;;;;;;19.10;7.43;;;6.80;73.30;;;;;;5027112;28;20474;-61
2021/03/12 02:41:34;;;;;;;20.23;8.02;;;6.80;73.10;;;;;;5073686;28;20045;-61
2021/03/12 02:44:07;;;;;;;23.90;7.88;;;6.70;73.50;;;;;;5055829;28;20040;-61
2021/03/12 02:46:48;;;;;;;17.77;7.70;;;6.70;73.10;;;;;;5041271;28;20048;-61
2021/03/12 02:49:15;;;;;;;20.35;7.75;;;6.70;73.30;;;;;;5059113;28;20476;-61
2021/03/12 02:51:44;;;;;;;21.15;8.95;;;6.70;73.70;;;;;;5049700;28;20510;-61
2021/03/12 02:54:13;;;;;;;21.85;8.00;;;6.70;73.90;;;;;;5054629;28;20055;-61
2021/03/12 02:56:44;;;;;;;19.30;7.63;;;6.60;73.80;;;;;;5061585;28;20502;-61
2021/03/12 02:59:12;;;;;;;23.00;8.88;;;6.60;74.20;;;;;;5077080;28;20025;-61
2021/03/12 03:02:18;;;;;;;20.65;8.02;;;6.50;74.40;;;;;;5023627;28;20045;-61
2021/03/12 03:05:07;;;;;;;20.77;9.00;;;6.50;75.10;;;;;;5004724;28;20052;-61
2021/03/12 03:07:41;;;;;;;20.05;8.75;;;6.40;75.20;;;;;;5006827;28;20030;-61
2021/03/12 03:10:11;;;;;;;18.90;8.43;;;6.40;75.90;;;;;;4989553;28;20108;-61
2021/03/12 03:12:41;;;;;;;20.65;8.07;;;6.40;76.40;;;;;;5007493;28;20042;-61
2021/03/12 03:15:09;;;;;;;21.08;8.70;;;6.40;77.10;;;;;;5008722;28;20656;-61
2021/03/12 03:17:38;;;;;;;20.48;7.63;;;6.30;78.30;;;;;;5000875;28;20061;-61
2021/03/12 03:20:10;;;;;;;19.10;8.20;;;6.30;79.00;;;;;;4997894;28;20046;-61
2021/03/12 03:22:39;;;;;;;22.00;8.25;;;6.20;79.60;;;;;;5006548;28;20125;-61
2021/03/12 03:25:11;;;;;;;22.13;8.70;;;6.20;80.90;;;;;;5009621;28;20030;-61
2021/03/12 03:27:39;;;;;;;20.60;8.27;;;6.10;81.00;;;;;;5017755;28;20501;-62
2021/03/12 03:30:09;;;;;;;23.45;7.72;;;6.00;82.20;;;;;;5009342;28;20137;-61
2021/03/12 03:32:36;;;;;;;19.98;7.97;;;6.00;82.60;;;;;;5010898;28;20045;-61
2021/03/12 03:35:06;;;;;;;20.80;8.43;;;6.00;83.20;;;;;;5021331;28;20053;-61
2021/03/12 03:37:34;;;;;;;23.33;8.95;;;5.90;83.10;;;;;;5054729;28;20045;-61
2021/03/12 03:40:05;;;;;;;22.63;8.88;;;5.80;84.30;;;;;;5031034;28;20527;-61
2021/03/12 03:42:32;;;;;;;25.30;9.27;;;5.80;84.60;;;;;;5052760;28;20117;-60
2021/03/12 03:45:00;;;;;;;23.30;9.05;;;5.80;85.40;;;;;;5070669;28;20053;-61
2021/03/12 03:47:28;;;;;;;18.63;8.25;;;5.70;84.10;;;;;;5052504;28;20269;-61
2021/03/12 03:49:56;;;;;;;25.10;9.32;;;5.70;84.70;;;;;;5055142;28;20040;-60
2021/03/12 03:52:24;;;;;;;23.35;8.68;;;5.70;86.40;;;;;;5052381;28;20041;-61
2021/03/12 03:54:58;;;;;;;16.65;7.85;;;5.70;85.70;;;;;;5048684;28;20061;-61
2021/03/12 03:57:26;;;;;;;22.48;8.32;;;5.70;85.60;;;;;;5040676;28;20044;-61
2021/03/12 03:59:53;;;;;;;25.80;8.23;;;5.70;86.80;;;;;;5036281;28;20045;-61
2021/03/12 04:02:22;;;;;;;18.45;8.25;;;5.70;87.20;;;;;;5047549;28;20056;-60
2021/03/12 04:04:51;;;;;;;24.67;8.50;;;5.70;87.60;;;;;;5048355;28;20567;-60
2021/03/12 04:07:23;;;;;;;17.33;7.32;;;5.60;88.50;;;;;;5049849;28;20045;-61
2021/03/12 04:09:54;;;;;;;18.45;8.05;;;5.60;90.10;;;;;;5050129;28;20095;-61
2021/03/12 04:12:23;;;;;;;24.20;8.55;;;5.60;90.40;;;;;;5044209;28;20052;-61
2021/03/12 04:14:55;;;;;;;25.90;10.35;;;5.60;90.40;;;;;;5052796;28;20553;-61
2021/03/12 04:17:22;;;;;;;23.25;8.85;;;5.60;90.60;;;;;;5071092;28;20352;-61
2021/03/12 04:19:50;;;;;;;21.08;8.63;;;5.60;91.10;;;;;;5048151;28;20040;-61
2021/03/12 04:22:17;;;;;;;24.25;9.15;;;5.60;91.30;;;;;;5071943;28;20486;-60
2021/03/12 04:24:45;;;;;;;24.23;9.75;;;5.60;91.50;;;;;;5072024;28;20048;-61
2021/03/12 04:27:17;;;;;;;20.50;9.53;;;5.60;91.50;;;;;;5049607;28;20413;-61
2021/03/12 04:29:44;;;;;;;23.35;9.07;;;5.70;92.10;;;;;;5052475;28;20518;-61
2021/03/12 04:32:12;;;;;;;301.40;92.72;;;5.70;92.50;;;;;;5034937;28;20097;-61
2021/03/12 04:34:39;;;;;;;177.68;61.03;;;5.60;93.00;;;;;;5073342;28;20033;-61
2021/03/12 04:37:07;;;;;;;29.77;13.27;;;5.60;93.60;;;;;;5069807;28;20063;-61
2021/03/12 04:39:35;;;;;;;22.83;8.90;;;5.70;93.90;;;;;;5071200;28;20036;-61
2021/03/12 04:42:04;;;;;;;28.58;10.02;;;5.70;94.00;;;;;;5035892;28;20052;-61
2021/03/12 04:44:31;;;;;;;323.45;87.65;;;5.70;94.20;;;;;;5032370;28;20354;-61
2021/03/12 04:46:58;;;;;;;352.52;96.63;;;5.70;94.40;;;;;;5029652;28;20040;-61
2021/03/12 04:49:25;;;;;;;58.53;20.70;;;5.70;94.50;;;;;;5029519;28;20151;-61
2021/03/12 04:51:56;;;;;;;30.27;10.68;;;5.70;94.70;;;;;;5031926;28;20110;-61
2021/03/12 04:54:24;;;;;;;23.25;9.20;;;5.70;94.70;;;;;;5030858;28;20052;-61
2021/03/12 04:56:51;;;;;;;21.10;8.82;;;5.70;95.20;;;;;;5020961;28;20037;-61
2021/03/12 04:59:18;;;;;;;24.55;9.50;;;5.80;95.30;;;;;;5028879;28;20052;-61
2021/03/12 05:01:48;;;;;;;29.05;9.55;;;5.80;95.80;;;;;;5031171;28;20033;-61
2021/03/12 05:04:16;;;;;;;28.88;10.70;;;5.80;96.50;;;;;;5024878;28;20067;-61
2021/03/12 05:06:45;;;;;;;24.98;9.30;;;5.80;96.60;;;;;;5030544;28;20492;-61
2021/03/12 05:09:40;;;;;;;22.67;8.63;;;5.80;96.70;;;;;;5016155;28;20506;-61
2021/03/12 05:12:12;;;;;;;24.80;8.50;;;5.80;97.10;;;;;;5029782;28;20072;-61
2021/03/12 05:14:40;;;;;;;21.02;8.77;;;5.90;97.70;;;;;;5029547;28;20518;-61
2021/03/12 05:17:07;;;;;;;22.17;8.38;;;5.90;98.00;;;;;;5030066;28;20131;-61
2021/03/12 05:19:34;;;;;;;22.33;8.88;;;6.00;98.40;;;;;;5033573;28;20056;-61
2021/03/12 05:22:02;;;;;;;21.02;8.27;;;6.00;99.30;;;;;;5030699;28;20500;-61
2021/03/12 05:24:31;;;;;;;23.00;9.35;;;6.00;99.90;;;;;;5030714;28;20589;-61
2021/03/12 05:26:58;;;;;;;22.70;9.85;;;6.00;99.90;;;;;;5050157;28;20056;-61
2021/03/12 05:29:30;;;;;;;24.27;10.23;;;5.90;99.90;;;;;;5032183;28;20041;-60
2021/03/12 05:32:01;;;;;;;18.90;8.60;;;5.90;99.90;;;;;;5028992;28;20543;-61
2021/03/12 05:34:31;;;;;;;19.35;8.25;;;6.00;99.90;;;;;;5027358;28;20044;-61
2021/03/12 05:36:59;;;;;;;20.77;9.07;;;6.00;99.90;;;;;;5024680;28;20590;-61
2021/03/12 05:39:25;;;;;;;22.00;9.32;;;6.10;99.90;;;;;;5045838;28;20060;-61
2021/03/12 05:41:54;;;;;;;18.60;7.93;;;6.10;99.90;;;;;;5030419;28;20045;-60
2021/03/12 05:44:29;;;;;;;17.17;8.32;;;6.20;99.90;;;;;;5023029;28;20040;-61
2021/03/12 05:47:00;;;;;;;19.60;7.82;;;6.30;99.90;;;;;;5026924;28;20037;-61
2021/03/12 05:49:28;;;;;;;17.17;7.47;;;6.40;99.90;;;;;;5028639;28;20037;-61
2021/03/12 05:51:54;;;;;;;16.67;7.10;;;6.40;99.90;;;;;;5024951;28;20215;-61
2021/03/12 05:54:21;;;;;;;19.58;8.43;;;6.50;99.90;;;;;;5031250;28;20585;-61
2021/03/12 05:56:48;;;;;;;21.50;7.75;;;6.50;99.90;;;;;;5031101;28;20506;-61
2021/03/12 05:59:15;;;;;;;18.38;8.07;;;6.60;99.90;;;;;;5027991;28;20483;-61
2021/03/12 06:01:47;;;;;;;19.08;7.85;;;6.70;99.90;;;;;;5024710;28;20136;-61
2021/03/12 06:04:15;;;;;;;19.45;7.28;;;6.70;99.90;;;;;;5015490;28;20051;-60
2021/03/12 06:06:43;;;;;;;19.55;7.78;;;6.80;99.90;;;;;;5029925;28;20028;-61
2021/03/12 06:09:11;;;;;;;18.98;7.40;;;6.90;99.90;;;;;;5028008;28;20124;-61
2021/03/12 06:11:38;;;;;;;18.08;8.02;;;6.90;99.90;;;;;;5048625;28;20045;-61
2021/03/12 06:14:06;;;;;;;17.35;7.60;;;7.00;99.90;;;;;;5028910;28;20149;-61
2021/03/12 06:16:50;;;;;;;17.27;8.38;;;7.00;99.90;;;;;;5009630;28;20045;-61
2021/03/12 06:19:34;;;;;;;18.20;8.30;;;7.10;99.90;;;;;;5016750;28;20037;-61
2021/03/12 06:22:14;;;;;;;18.23;8.27;;;7.20;99.90;;;;;;5031885;28;20068;-61
2021/03/12 06:24:50;;;;;;;27.98;11.00;;;7.20;99.90;;;;;;5030532;28;20040;-61
2021/03/12 06:27:30;;;;;;;49.55;19.35;;;7.30;99.90;;;;;;5025093;28;20048;-61
2021/03/12 06:30:34;;;;;;;38.92;13.88;;;7.40;99.90;;;;;;5029677;28;20049;-61
2021/03/12 06:33:28;;;;;;;24.85;10.00;;;7.50;99.90;;;;;;4967098;28;20043;-61
2021/03/12 06:36:30;;;;;;;26.90;10.13;;;7.50;99.90;;;;;;4962212;28;20063;-61
2021/03/12 06:39:29;;;;;;;22.40;9.05;;;7.60;99.90;;;;;;4966289;28;20062;-62
2021/03/12 06:42:10;;;;;;;19.90;8.55;;;7.70;99.90;;;;;;4963051;28;20565;-61
2021/03/12 06:44:44;;;;;;;16.35;7.57;;;7.70;99.90;;;;;;4954909;28;20074;-61
2021/03/12 06:47:21;;;;;;;20.40;8.27;;;7.80;99.90;;;;;;4957292;28;20070;-61
2021/03/12 06:49:57;;;;;;;15.65;7.30;;;7.80;99.90;;;;;;4970810;28;20137;-61
2021/03/12 06:52:46;;;;;;;15.77;8.07;;;7.80;99.90;;;;;;4971443;28;20738;-61
2021/03/12 06:55:44;;;;;;;18.70;7.78;;;7.80;99.90;;;;;;4955534;28;20054;-61
2021/03/12 06:58:25;;;;;;;19.08;7.78;;;7.90;99.90;;;;;;4972556;28;20185;-61
2021/03/12 07:01:20;;;;;;;16.35;7.50;;;8.00;99.90;;;;;;4963220;28;20485;-61
2021/03/12 07:04:11;;;;;;;18.50;7.38;;;8.10;99.90;;;;;;4951882;28;20059;-61
2021/03/12 07:06:51;;;;;;;14.52;6.25;;;8.30;99.90;;;;;;4969843;28;20466;-61
2021/03/12 07:09:26;;;;;;;15.60;6.85;;;8.40;99.90;;;;;;4979560;28;20050;-61
2021/03/12 07:12:18;;;;;;;15.10;6.55;;;8.50;99.90;;;;;;5046551;28;20496;-61
2021/03/12 07:14:55;;;;;;;17.60;7.15;;;8.60;99.90;;;;;;5036794;28;20053;-61
2021/03/12 07:17:44;;;;;;;13.38;5.85;;;8.80;99.90;;;;;;5029548;28;20068;-61
2021/03/12 07:20:20;;;;;;;14.07;6.70;;;9.00;99.90;;;;;;5032341;28;20048;-61
2021/03/12 07:22:49;;;;;;;19.33;10.43;;;9.00;99.90;;;;;;5029843;28;20140;-61
2021/03/12 07:25:21;;;;;;;18.35;9.35;;;9.00;99.90;;;;;;5035393;28;20499;-61
2021/03/12 07:27:58;;;;;;;18.98;10.93;;;9.00;99.90;;;;;;5044217;28;20077;-61
2021/03/12 07:30:38;;;;;;;14.38;7.18;;;9.10;99.90;;;;;;5035062;28;20064;-61
2021/03/12 07:33:06;;;;;;;15.07;6.38;;;9.10;99.90;;;;;;5034605;28;20041;-61
2021/03/12 07:35:43;;;;;;;17.08;8.55;;;9.20;99.90;;;;;;5033409;28;20068;-61
2021/03/12 07:38:24;;;;;;;20.67;11.40;;;9.40;99.90;;;;;;5027635;28;20049;-61
2021/03/12 07:41:05;;;;;;;13.82;6.95;;;9.50;99.90;;;;;;5030815;28;20075;-61
2021/03/12 07:43:44;;;;;;;14.70;6.63;;;9.60;99.90;;;;;;5036468;28;20155;-61
2021/03/12 07:46:27;;;;;;;14.15;6.13;;;9.70;99.90;;;;;;5042913;28;20056;-61
2021/03/12 07:48:58;;;;;;;10.30;4.95;;;9.80;99.90;;;;;;5048081;28;20098;-61
2021/03/12 07:51:48;;;;;;;11.75;5.47;;;9.90;99.90;;;;;;5017532;28;20041;-61
2021/03/12 07:54:35;;;;;;;13.85;5.20;;;10.10;99.90;;;;;;5033762;28;20037;-61
2021/03/12 07:57:06;;;;;;;9.75;4.20;;;10.20;99.90;;;;;;5032866;28;20087;-61
2021/03/12 07:59:48;;;;;;;16.05;7.85;;;10.30;99.90;;;;;;5027863;28;20142;-61
2021/03/12 08:02:55;;;;;;;10.77;4.60;;;10.50;98.90;;;;;;5047707;28;20074;-61
2021/03/12 08:05:40;;;;;;;10.10;4.93;;;10.60;98.40;;;;;;5049870;28;20044;-61
2021/03/12 08:08:34;;;;;;;10.35;4.68;;;10.70;97.80;;;;;;5022356;28;20041;-61
2021/03/12 08:11:28;;;;;;;10.02;4.38;;;10.80;97.70;;;;;;5044169;28;20040;-61
2021/03/12 08:14:09;;;;;;;12.50;5.30;;;10.90;96.80;;;;;;5027229;28;20045;-61
2021/03/12 08:17:04;;;;;;;;;;;11.00;95.90;;;;;;5029343;28;20049;-61
2021/03/12 08:19:48;;;;;;;8.52;3.85;;;11.00;96.00;;;;;;5028781;28;19924;-61
2021/03/12 08:22:26;;;;;;;8.95;3.95;;;11.10;95.30;;;;;;5016208;28;20048;-61
2021/03/12 08:24:57;;;;;;;10.65;4.60;;;11.20;95.10;;;;;;5030524;28;20045;-61
2021/03/12 08:27:49;;;;;;;11.05;4.28;;;11.20;94.60;;;;;;4986871;28;20054;-61
2021/03/12 08:30:31;;;;;;;11.38;4.85;;;11.30;94.10;;;;;;4987212;28;20049;-61
2021/03/12 08:33:27;;;;;;;11.35;4.35;;;11.40;93.80;;;;;;4969352;28;20046;-61
2021/03/12 08:36:27;;;;;;;11.65;4.20;;;11.50;94.00;;;;;;4944319;28;20494;-60
2021/03/12 08:39:28;;;;;;;10.82;5.03;;;11.60;94.00;;;;;;4978743;28;20593;-61
2021/03/12 08:42:06;;;;;;;13.95;5.35;;;11.70;94.10;;;;;;4972914;28;20532;-61
2021/03/12 08:45:02;;;;;;;10.13;4.28;;;11.80;94.20;;;;;;4973812;28;20082;-61
2021/03/12 08:48:18;;;;;;;12.13;4.88;;;12.00;91.90;;;;;;4973105;28;20086;-61
2021/03/12 08:51:05;;;;;;;5.32;2.30;;;12.00;90.40;;;;;;4984391;28;20049;-61
2021/03/12 08:53:39;;;;;;;5.32;0.98;;;12.00;83.10;;;;;;4978541;28;20046;-62
2021/03/12 08:56:09;;;;;;;2.70;0.65;;;12.10;73.20;;;;;;4969695;28;20262;-61
2021/03/12 08:58:47;;;;;;;2.65;1.13;;;12.20;70.50;;;;;;4963576;28;20121;-61
2021/03/12 09:01:33;;;;;;;3.30;1.13;;;12.30;71.40;;;;;;4974095;28;20053;-61
2021/03/12 09:04:07;;;;;;;12.82;2.28;;;12.30;68.00;;;;;;4978210;28;20045;-61
2021/03/12 09:06:38;;;;;;;3.03;0.93;;;12.20;67.20;;;;;;5049065;28;20051;-60
2021/03/12 09:09:39;;;;;;;3.00;1.08;;;12.30;67.40;;;;;;5031208;28;20052;-61
2021/03/12 09:12:38;;;;;;;3.00;0.80;;;12.40;67.00;;;;;;5030301;28;20057;-61
2021/03/12 09:15:24;;;;;;;3.58;1.00;;;12.40;66.40;;;;;;5031901;28;20045;-61
2021/03/12 09:18:07;;;;;;;2.92;0.70;;;12.50;66.00;;;;;;5017858;28;20496;-61
2021/03/12 09:20:34;;;;;;;2.88;1.05;;;12.60;64.40;;;;;;5027407;28;20128;-61
2021/03/12 09:23:07;;;;;;;3.58;0.90;;;12.60;62.70;;;;;;5032148;28;20140;-61
2021/03/12 09:25:39;;;;;;;2.50;0.55;;;12.70;63.20;;;;;;5031041;28;20056;-61
2021/03/12 09:28:14;;;;;;;2.65;0.45;;;12.80;62.20;;;;;;5049112;28;20037;-61
2021/03/12 09:31:02;;;;;;;0.50;0.10;;;12.90;62.40;;;;;;5029733;28;20579;-61
2021/03/12 09:33:51;;;;;;;2.00;0.40;;;13.00;61.90;;;;;;5028588;28;20611;-61
2021/03/12 09:36:43;;;;;;;2.08;0.20;;;13.10;61.00;;;;;;5010193;28;20045;-61
2021/03/12 09:39:27;;;;;;;0.90;0.20;;;13.10;60.50;;;;;;5024276;28;20052;-61
2021/03/12 09:42:03;;;;;;;0.70;0.20;;;13.10;60.30;;;;;;5029264;28;20052;-61
2021/03/12 09:44:38;;;;;;;1.17;0.20;;;13.10;59.80;;;;;;5028024;28;20512;-61
2021/03/12 09:47:11;;;;;;;0.70;0.20;;;13.10;60.40;;;;;;5018003;28;20137;-61
2021/03/12 09:49:45;;;;;;;0.90;0.20;;;13.30;59.50;;;;;;5022898;28;20399;-63
2021/03/12 09:52:20;;;;;;;2.53;0.60;;;13.20;58.00;;;;;;5024402;28;20076;-63
2021/03/12 09:54:57;;;;;;;1.40;0.20;;;13.20;58.40;;;;;;5017759;28;20041;-62
2021/03/12 09:57:26;;;;;;;;;;;13.30;57.30;;;;;;5028772;28;20037;-63
2021/03/12 09:59:59;;;;;;;0.75;0.20;;;13.30;58.10;;;;;;5027310;28;19965;-62
2021/03/12 10:02:58;;;;;;;4.25;0.77;;;13.20;57.90;;;;;;5051082;28;20094;-62
2021/03/12 10:05:44;;;;;;;1.38;0.20;;;13.50;58.20;;;;;;5053801;28;20068;-63
2021/03/12 10:09:06;;;;;;;2.35;0.50;;;13.60;56.80;;;;;;5024501;28;20211;-63
2021/03/12 10:11:56;;;;;;;5.13;0.82;;;13.70;56.70;;;;;;5034800;28;20407;-63
2021/03/12 10:14:39;;;;;;;0.50;0.10;;;13.90;56.20;;;;;;5037176;28;20055;-63
2021/03/12 10:17:19;;;;;;;2.40;0.20;;;14.00;55.20;;;;;;5036882;28;20048;-63
2021/03/12 10:20:04;;;;;;;5.40;1.15;;;14.10;55.20;;;;;;5041263;28;20427;-63
2021/03/12 10:22:39;;;;;;;2.67;0.63;;;14.20;54.70;;;;;;5047921;28;20037;-63
2021/03/12 10:25:11;;;;;;;2.35;0.30;;;14.40;55.10;;;;;;5033879;28;20041;-63
2021/03/12 10:27:42;;;;;;;4.60;0.28;;;14.60;54.50;;;;;;5047623;28;20041;-63
2021/03/12 10:30:21;;;;;;;2.70;0.10;;;14.70;52.80;;;;;;5051207;28;20037;-63
2021/03/12 10:32:50;;;;;;;0.80;0.20;;;14.80;52.70;;;;;;5024418;28;20042;-63
2021/03/12 10:35:29;;;;;;;3.17;0.40;;;14.90;51.00;;;;;;5050979;28;20045;-64
2021/03/12 10:38:05;;;;;;;1.60;0.08;;;14.70;50.10;;;;;;5037517;28;20143;-63
2021/03/12 10:40:36;;;;;;;1.20;0.10;;;14.40;51.20;;;;;;5048049;28;20912;-64
2021/03/12 10:43:16;;;;;;;2.58;0.10;;;14.30;50.60;;;;;;5050311;28;20045;-63
2021/03/12 10:45:49;;;;;;;3.08;0.10;;;14.30;50.40;;;;;;5052986;28;20056;-63
2021/03/12 10:48:16;;;;;;;2.63;0.30;;;14.40;50.20;;;;;;5043551;28;20461;-63
2021/03/12 10:51:03;;;;;;;0.20;0.10;;;14.40;50.50;;;;;;5022586;28;20049;-63
2021/03/12 10:53:46;;;;;;;0.47;0.00;;;14.60;50.00;;;;;;5043661;28;20041;-63
2021/03/12 10:56:14;;;;;;;0.88;0.00;;;14.50;49.90;;;;;;5046310;28;20659;-63
2021/03/12 10:58:42;;;;;;;0.93;0.10;;;14.70;48.40;;;;;;5027566;28;20065;-63
2021/03/12 11:01:22;;;;;;;1.05;0.10;;;14.80;48.80;;;;;;5050621;28;20514;-63
2021/03/12 11:03:50;;;;;;;1.35;0.00;;;14.90;48.10;;;;;;5046134;28;20052;-63
2021/03/12 11:06:20;;;;;;;0.73;0.00;;;14.90;47.80;;;;;;5027917;28;20385;-63
2021/03/12 11:08:48;;;;;;;0.28;0.00;;;15.00;48.00;;;;;;5046959;28;20435;-63
2021/03/12 11:11:21;;;;;;;1.38;0.30;;;15.20;49.00;;;;;;5028552;28;20071;-64
2021/03/12 11:13:49;;;;;;;2.92;0.03;;;15.30;49.10;;;;;;5005787;28;20045;-63
2021/03/12 11:16:15;;;;;;;0.73;0.00;;;15.00;46.80;;;;;;5031345;28;20049;-64
2021/03/12 11:18:42;;;;;;;0.40;0.05;;;14.80;48.30;;;;;;5048825;28;20037;-64
2021/03/12 11:21:11;;;;;;;1.10;0.10;;;14.90;47.60;;;;;;5042620;28;20058;-63
2021/03/12 11:23:41;;;;;;;0.20;0.00;;;15.00;47.50;;;;;;5044739;28;20478;-63
2021/03/12 11:26:08;;;;;;;1.00;0.17;;;15.10;46.00;;;;;;5047561;28;20043;-63
2021/03/12 11:28:35;;;;;;;0.73;0.00;;;15.20;44.70;;;;;;5049534;28;20710;-63
2021/03/12 11:31:03;;;;;;;1.05;0.20;;;15.10;44.30;;;;;;5045130;28;20140;-63
2021/03/12 11:33:31;;;;;;;2.17;0.10;;;15.20;43.80;;;;;;5029903;28;20822;-64
2021/03/12 11:36:00;;;;;;;1.52;0.20;;;15.30;44.00;;;;;;5047328;28;20049;-63
2021/03/12 11:38:30;;;;;;;0.50;0.20;;;15.50;43.00;;;;;;5039020;28;20102;-63
2021/03/12 11:40:57;;;;;;;0.95;0.10;;;15.30;42.80;;;;;;5010754;28;20060;-62
2021/03/12 11:43:32;;;;;;;1.63;0.10;;;15.40;43.00;;;;;;5043086;28;20063;-64
2021/03/12 11:46:09;;;;;;;0.57;0.05;;;15.50;43.00;;;;;;5028910;28;20051;-64
2021/03/12 11:48:36;;;;;;;9.35;0.65;;;15.40;42.60;;;;;;5049292;28;20045;-64
2021/03/12 11:51:04;;;;;;;3.40;0.10;;;15.40;42.90;;;;;;5049172;28;20040;-64
2021/03/12 11:53:31;;;;;;;0.15;0.00;;;15.30;43.20;;;;;;5050609;28;20464;-64
2021/03/12 11:55:57;;;;;;;1.13;0.20;;;15.20;43.30;;;;;;5050906;28;20071;-65
2021/03/12 11:58:24;;;;;;;0.82;0.15;;;15.20;42.40;;;;;;5052714;28;20051;-65
2021/03/12 12:00:50;;;;;;;1.77;0.15;;;15.20;42.40;;;;;;5026206;28;20065;-64
2021/03/12 12:03:17;;;;;;;0.40;0.10;;;15.30;43.10;;;;;;5049744;28;20115;-63
2021/03/12 12:05:45;;;;;;;4.22;0.10;;;15.10;43.70;;;;;;5028440;28;20040;-63
2021/03/12 12:08:12;;;;;;;3.03;0.00;;;15.20;45.00;;;;;;5021490;28;20072;-63
2021/03/12 12:10:40;;;;;;;3.30;0.20;;;15.50;45.10;;;;;;5042627;28;20128;-63
2021/03/12 12:13:06;;;;;;;2.17;0.17;;;15.70;42.00;;;;;;5047487;28;20098;-63
2021/03/12 12:15:33;;;;;;;1.35;0.00;;;15.60;42.20;;;;;;5047092;28;20045;-63
2021/03/12 12:18:00;;;;;;;0.38;0.13;;;15.60;41.50;;;;;;5049164;28;20064;-63
2021/03/12 12:20:30;;;;;;;1.23;0.10;;;15.10;41.60;;;;;;5029182;28;20049;-63
2021/03/12 12:22:57;;;;;;;2.25;0.30;;;14.80;42.90;;;;;;5023021;28;20049;-65
2021/03/12 12:25:24;;;;;;;2.10;0.10;;;14.70;43.60;;;;;;5041804;28;20044;-72
2021/03/12 12:27:51;;;;;;;2.38;0.68;;;14.90;43.70;;;;;;5044633;28;20487;-67
2021/03/12 12:30:18;;;;;;;1.15;0.30;;;14.90;43.20;;;;;;5044558;28;20049;-66
2021/03/12 12:32:45;;;;;;;5.90;0.10;;;15.20;43.10;;;;;;5028733;28;20833;-66
2021/03/12 12:35:13;;;;;;;2.40;0.40;;;15.10;43.50;;;;;;5047448;28;20043;-66
2021/03/12 12:37:47;;;;;;;0.93;0.20;;;15.00;43.60;;;;;;5028940;28;20047;-66
2021/03/12 12:40:14;;;;;;;2.05;0.10;;;15.10;44.30;;;;;;5046751;28;20472;-67
2021/03/12 12:42:41;;;;;;;2.05;0.28;;;15.50;43.90;;;;;;5046048;28;20499;-66
2021/03/12 12:45:08;;;;;;;0.13;0.00;;;15.60;42.80;;;;;;5044493;28;20106;-66
2021/03/12 12:47:37;;;;;;;0.25;0.10;;;15.30;43.60;;;;;;5028164;28;20147;-66
2021/03/12 12:50:05;;;;;;;1.30;0.10;;;15.20;44.00;;;;;;5043049;28;20393;-66
2021/03/12 12:52:33;;;;;;;0.38;0.10;;;15.40;43.20;;;;;;5025556;28;20045;-66
2021/03/12 12:55:04;;;;;;;2.08;0.28;;;15.50;42.70;;;;;;5025347;28;20085;-63
2021/03/12 12:57:31;;;;;;;0.93;0.10;;;15.40;43.40;;;;;;5043174;28;20048;-66
2021/03/12 12:59:58;;;;;;;0.95;0.10;;;15.40;43.70;;;;;;5039355;28;20566;-65
2021/03/12 13:02:25;;;;;;;2.25;0.17;;;15.70;43.20;;;;;;5020278;28;20608;-65
2021/03/12 13:04:52;;;;;;;0.40;0.05;;;16.10;43.20;;;;;;5043877;28;20049;-65
2021/03/12 13:07:18;;;;;;;0.50;0.05;;;16.00;41.50;;;;;;5026646;28;20037;-65
2021/03/12 13:09:45;;;;;;;0.63;0.05;;;16.00;42.00;;;;;;5040647;28;20411;-66
2021/03/12 13:12:12;;;;;;;0.60;0.05;;;16.20;42.30;;;;;;5027377;28;20068;-65
2021/03/12 13:14:40;;;;;;;0.75;0.00;;;16.00;41.70;;;;;;5045861;28;20724;-66
2021/03/12 13:17:07;;;;;;;3.63;0.10;;;16.00;42.20;;;;;;5042912;28;20049;-65
2021/03/12 13:19:34;;;;;;;0.52;0.00;;;15.60;42.10;;;;;;5043578;28;20036;-65
2021/03/12 13:22:01;;;;;;;1.73;1.00;;;15.40;43.30;;;;;;5043912;28;20816;-66